Latest Weather Observations for Low Head

IDT60801

Issued at 5:02 am EST Tuesday 3 May 2016 (issued every 30 minutes, with the page automatically refreshed every 10 minutes)

About weather observations | Map of weather stations | Latest weather observations for TAS | Other Formats
Station Details ID: 091293 Name: LOW HEAD Lat: -41.05 Lon: 146.79 Height: 3.0 m
Data from the previous 72 hours. | See also: Recent months at Low Head
Date/Time
EST
Temp
°C
App
Temp
°C
Dew
Point
Rel
Hum
%
Delta-T
°C
Wind Press
QNH
hPa
Press
MSL
hPa
Rain
since 9 am
mm
Dir
 
Spd
km/h
Gust
km/h
Spd
kts
Gust
kts
03/05:00am 16.8 4.5 12.5 76 2.4 NNW 69 87 37 47 994.0 994.0 1.4
03/04:30am 16.7 5.1 12.3 75 2.4 NNW 65 85 35 46 994.2 994.2 1.4
03/04:27am 16.7 4.7 12.3 75 2.4 NNW 67 85 36 46 994.2 994.2 1.4
03/04:00am 16.6 4.9 12.2 75 2.4 NNW 65 82 35 44 994.7 994.7 1.4
03/03:31am 16.8 5.1 12.1 74 2.6 NNW 65 87 35 47 995.3 995.3 1.4
03/03:30am 16.8 5.1 12.1 74 2.6 NNW 65 80 35 43 995.3 995.3 1.4
03/03:00am 16.8 4.7 11.9 73 2.7 NNW 67 89 36 48 995.9 995.9 1.4
03/02:56am 16.8 4.7 11.9 73 2.7 NNW 67 85 36 46 995.9 995.9 1.4
03/02:30am 16.7 4.9 11.8 73 2.7 NNW 65 78 35 42 996.3 996.3 1.4
03/02:06am 16.6 5.5 11.5 72 2.8 NNW 61 80 33 43 996.7 996.7 1.4
03/02:00am 16.7 6.1 11.8 73 2.7 NNW 59 72 32 39 997.0 997.0 1.4
03/01:34am 16.8 5.7 11.7 72 2.8 NNW 61 80 33 43 997.7 997.7 1.4
03/01:30am 16.8 5.4 11.7 72 2.8 NNW 63 76 34 41 997.6 997.6 1.4
03/01:00am 16.7 6.0 11.6 72 2.8 NNW 59 72 32 39 998.1 998.1 1.4
03/12:52am 16.8 6.2 11.9 73 2.7 NNW 59 78 32 42 998.2 998.2 1.4
03/12:30am 16.7 6.1 11.8 73 2.7 NNW 59 74 32 40 998.6 998.6 1.4
03/12:00am 16.7 5.6 11.6 72 2.8 NNW 61 83 33 45 999.0 999.0 1.4
 
Date/Time
EST
Temp
°C
App
Temp
°C
Dew
Point
Rel
Hum
%
Delta-T
°C
Wind Press
QNH
hPa
Press
MSL
hPa
Rain
since 9 am
mm
Dir
 
Spd
km/h
Gust
km/h
Spd
kts
Gust
kts
02/11:30pm 16.8 4.9 11.5 71 2.9 NNW 65 87 35 47 999.6 999.6 1.4
02/11:09pm 16.7 5.2 11.6 72 2.8 NNW 63 82 34 44 999.7 999.7 1.4
02/11:00pm 16.8 4.9 11.5 71 2.9 NNW 65 78 35 42 999.9 999.9 1.4
02/10:30pm 16.7 5.6 11.6 72 2.8 NNW 61 80 33 43 1000.3 1000.3 1.4
02/10:00pm 16.8 5.2 11.3 70 3.0 NNW 63 82 34 44 1000.7 1000.7 1.4
02/09:30pm 16.9 6.3 11.8 72 2.8 NNW 59 74 32 40 1001.0 1001.0 1.4
02/09:22pm 17.1 6.5 12.0 72 2.8 NNW 59 78 32 42 1001.1 1001.1 1.4
02/09:00pm 17.0 6.3 11.7 71 2.9 NNW 59 72 32 39 1001.3 1001.3 1.4
02/08:30pm 17.0 5.9 11.5 70 3.0 NNW 61 83 33 45 1001.5 1001.5 1.4
02/08:10pm 17.0 6.7 11.7 71 2.9 NNW 57 76 31 41 1001.6 1001.6 1.4
02/08:00pm 17.0 6.3 11.7 71 2.9 NNW 59 72 32 39 1001.7 1001.7 1.4
02/07:31pm 16.9 6.2 11.6 71 2.9 NNW 59 78 32 42 1001.9 1001.9 1.4
02/07:30pm 16.9 5.8 11.6 71 2.9 NNW 61 78 33 42 1001.9 1001.9 1.4
02/07:00pm 16.4 6.0 11.3 72 2.8 NNW 57 70 31 38 1002.0 1002.0 1.4
02/06:34pm 16.3 5.9 11.2 72 2.7 NNW 57 76 31 41 1002.3 1002.3 1.4
02/06:30pm 16.5 6.3 11.4 72 2.8 NNW 56 72 30 39 1002.3 1002.3 1.4
02/06:00pm 16.4 6.3 11.6 73 2.6 NNW 56 67 30 36 1002.6 1002.6 1.4
02/05:30pm 16.0 5.5 11.0 72 2.7 NNW 57 69 31 37 1002.5 1002.5 1.4
02/05:00pm 15.8 5.4 11.4 75 2.4 NW 57 69 31 37 1002.6 1002.6 1.4
02/04:39pm 15.2 5.6 12.0 81 1.7 NW 54 72 29 39 1002.8 1002.8 1.4
02/04:30pm 14.9 5.1 11.3 79 1.9 NW 54 69 29 37 1003.0 1003.0 1.4
02/04:00pm 15.7 6.2 11.3 75 2.4 NW 52 69 28 37 1003.1 1003.1 1.2
02/03:50pm 15.9 6.1 11.5 75 2.4 NW 54 72 29 39 1003.4 1003.4 1.2
02/03:30pm 15.6 5.8 11.4 76 2.3 NW 54 63 29 34 1003.3 1003.3 1.2
02/03:00pm 15.9 5.5 10.7 71 2.8 NW 56 69 30 37 1003.6 1003.6 1.2
02/02:30pm 16.0 6.5 11.0 72 2.7 NW 52 63 28 34 1003.8 1003.8 1.2
02/02:00pm 15.7 4.9 11.1 74 2.5 NW 59 69 32 37 1003.7 1003.7 1.2
02/01:30pm 14.8 7.0 11.8 82 1.6 NW 44 56 24 30 1003.8 1003.8 1.2
02/01:25pm 14.6 5.9 11.4 81 1.7 NW 48 67 26 36 1004.0 1004.0 1.2
02/01:00pm 14.6 5.6 11.6 82 1.6 NW 50 59 27 32 1004.4 1004.4 1.2
02/12:47pm 14.3 4.5 11.3 82 1.6 NW 54 72 29 39 1004.6 1004.6 1.2
02/12:38pm 14.2 4.3 11.0 81 1.7 NW 54 72 29 39 1004.6 1004.6 1.2
02/12:30pm 14.4 6.7 11.6 83 1.5 NW 43 61 23 33 1004.7 1004.7 1.2
02/12:28pm 14.6 7.7 11.7 83 1.6 NW 39 57 21 31 1004.6 1004.6 1.2
02/12:00pm 15.3 6.6 11.3 77 2.1 NW 48 61 26 33 1005.1 1005.1 0.4
02/11:30am 15.1 7.1 11.1 77 2.1 NW 44 54 24 29 1005.6 1005.6 0.4
02/11:15am 15.1 6.8 11.5 79 1.9 NW 46 54 25 29 1005.9 1005.9 0.4
02/11:01am 14.6 9.3 11.4 81 1.7 WNW 30 52 16 28 1005.9 1005.9 0.4
02/11:00am 14.5 9.6 11.3 81 1.7 W 28 35 15 19 1005.9 1005.9 0.4
02/10:30am 14.6 8.7 10.4 76 2.2 WNW 32 37 17 20 1006.1 1006.1 0.0
02/10:00am 14.8 8.7 10.4 75 2.3 WNW 33 41 18 22 1006.3 1006.3 0.0
02/09:30am 14.4 6.3 10.2 76 2.2 WNW 43 50 23 27 1006.6 1006.6 0.0
02/09:00am 13.8 6.8 10.0 78 2.0 W 37 46 20 25 1006.5 1006.5 4.6
02/08:30am 13.5 6.4 9.7 78 1.9 W 37 44 20 24 1006.9 1006.9 4.6
02/08:00am 13.4 7.1 9.6 78 1.9 WNW 33 39 18 21 1007.0 1007.0 4.6
02/07:30am 13.3 6.2 9.5 78 1.9 W 37 41 20 22 1006.9 1006.9 4.6
02/07:00am 13.8 5.7 10.0 78 2.0 W 43 50 23 27 1006.7 1006.7 4.6
02/06:30am 13.1 5.1 9.0 76 2.1 W 41 50 22 27 1006.5 1006.5 4.6
02/06:00am 13.3 4.4 9.2 76 2.1 W 46 56 25 30 1006.7 1006.7 4.6
02/05:30am 13.1 3.3 8.8 75 2.2 W 50 59 27 32 1006.8 1006.8 4.6
02/05:00am 12.9 4.2 8.6 75 2.2 W 44 54 24 29 1006.8 1006.8 4.6
02/04:30am 12.8 3.3 8.5 75 2.1 W 48 57 26 31 1006.8 1006.8 4.6
02/04:00am 12.6 3.4 8.1 74 2.2 W 46 56 25 30 1006.7 1006.7 4.6
02/03:30am 12.9 3.0 8.2 73 2.3 W 50 61 27 33 1006.8 1006.8 4.6
02/03:00am 12.8 2.5 8.1 73 2.3 W 52 63 28 34 1006.8 1006.8 4.6
02/02:30am 12.7 2.7 8.0 73 2.3 W 50 59 27 32 1006.9 1006.9 4.6
02/02:00am 12.9 3.4 8.4 74 2.2 W 48 59 26 32 1006.9 1006.9 4.6
02/01:30am 12.8 2.2 8.3 74 2.2 W 54 65 29 35 1006.9 1006.9 4.6
02/01:00am 12.6 2.2 7.9 73 2.3 W 52 63 28 34 1006.8 1006.8 4.6
02/12:30am 12.6 2.1 7.5 71 2.5 W 52 61 28 33 1006.5 1006.5 4.6
02/12:00am 12.6 2.6 7.7 72 2.4 W 50 61 27 33 1006.6 1006.6 4.6
 
Date/Time
EST
Temp
°C
App
Temp
°C
Dew
Point
Rel
Hum
%
Delta-T
°C
Wind Press
QNH
hPa
Press
MSL
hPa
Rain
since 9 am
mm
Dir
 
Spd
km/h
Gust
km/h
Spd
kts
Gust
kts
01/11:30pm 12.5 3.7 7.4 71 2.5 W 43 54 23 29 1006.6 1006.6 4.6
01/11:00pm 12.8 2.8 7.7 71 2.5 W 50 63 27 34 1006.4 1006.4 4.6
01/10:30pm 12.8 1.4 7.7 71 2.5 W 57 69 31 37 1006.2 1006.2 4.6
01/10:00pm 12.7 2.3 7.8 72 2.4 W 52 67 28 36 1006.0 1006.0 4.6
01/09:30pm 12.8 1.6 7.7 71 2.5 W 56 65 30 35 1005.6 1005.6 4.6
01/09:00pm 13.2 2.6 8.3 72 2.4 W 54 67 29 36 1005.1 1005.1 4.6
01/08:30pm 13.0 3.0 7.9 71 2.5 WSW 50 61 27 33 1004.5 1004.5 4.6
01/08:00pm 13.2 2.1 8.1 71 2.5 WSW 56 69 30 37 1003.9 1003.9 4.6
01/07:30pm 13.7 2.5 8.5 71 2.6 W 57 74 31 40 1003.5 1003.5 4.6
01/07:00pm 13.4 1.9 8.5 72 2.5 W 59 70 32 38 1002.5 1002.5 4.6
01/06:30pm 14.1 2.2 8.5 69 2.8 W 61 76 33 41 1001.6 1001.6 4.6
01/06:00pm 14.0 2.5 8.8 71 2.6 W 59 74 32 40 1000.9 1000.9 4.6
01/05:30pm 14.4 1.9 9.2 71 2.7 W 65 83 35 45 999.4 999.4 4.6
01/05:03pm 14.1 1.5 8.9 71 2.6 W 65 83 35 45 998.6 998.6 4.6
01/05:00pm 14.4 1.9 9.4 72 2.6 W 65 80 35 43 998.4 998.4 4.6
01/04:32pm 14.0 1.4 9.0 72 2.5 W 65 83 35 45 997.9 997.9 4.6
01/04:30pm 14.0 1.1 9.0 72 2.5 W 67 80 36 43 997.9 997.9 4.6
01/04:19pm 14.0 1.0 8.8 71 2.6 W 67 85 36 46 997.6 997.6 4.6
01/04:00pm 14.0 1.0 8.6 70 2.7 W 67 83 36 45 997.0 997.0 4.6
01/03:39pm 14.7 2.0 9.9 73 2.5 W 67 85 36 46 996.6 996.6 4.6
01/03:30pm 14.3 1.1 9.5 73 2.5 W 69 83 37 45 996.6 996.6 4.6
01/03:12pm 14.0 1.5 9.2 73 2.4 W 65 83 35 45 996.2 996.2 4.6
01/03:00pm 14.0 0.7 9.2 73 2.5 W 69 80 37 43 996.1 996.1 4.6
01/02:46pm 14.1 0.9 9.3 73 2.4 W 69 87 37 47 995.8 995.8 4.6
01/02:30pm 14.2 0.5 9.6 74 2.4 W 72 87 39 47 995.3 995.3 4.6
01/02:04pm 13.8 -1.1 9.5 75 2.2 W 78 98 42 53 994.1 994.1 4.6
01/02:00pm 14.0 -0.1 9.8 76 2.2 W 74 89 40 48 994.0 994.0 4.6
01/01:30pm 14.5 -0.8 10.9 79 1.9 W 82 102 44 55 992.2 992.2 4.6
01/01:00pm 14.6 0.8 12.1 85 1.4 WNW 76 102 41 55 992.1 992.1 4.4
01/12:35pm 14.7 2.2 12.0 84 1.5 WNW 69 89 37 48 992.4 992.4 4.4
01/12:30pm 15.0 2.6 12.3 84 1.5 WNW 69 83 37 45 992.5 992.5 4.4
01/12:24pm 14.9 2.8 12.0 83 1.6 WNW 67 83 36 45 992.5 992.5 4.4
01/12:00pm 15.8 6.9 13.1 84 1.5 NW 52 70 28 38 992.7 992.7 4.4
01/11:59am 15.8 6.9 13.1 84 1.5 NW 52 70 28 38 992.7 992.7 4.4
01/11:30am 15.6 5.4 13.1 85 1.4 NNW 59 74 32 40 993.4 993.4 4.4
01/11:00am 15.9 5.8 13.4 85 1.4 NNW 59 70 32 38 994.5 994.5 4.4
01/10:30am 15.9 5.9 13.7 87 1.2 NNW 59 74 32 40 995.7 995.7 4.4
01/10:28am 15.8 6.1 13.6 87 1.2 NNW 57 72 31 39 995.7 995.7 4.4
01/10:00am 14.1 6.7 12.3 89 1.0 NW 43 63 23 34 996.2 996.2 4.4
01/09:57am 14.5 7.2 12.7 89 1.0 NW 43 63 23 34 996.3 996.3 2.8
01/09:49am 13.4 4.4 11.5 88 1.0 NNW 50 63 27 34 996.2 996.2 2.6
01/09:30am 16.3 8.9 14.1 87 1.2 N 46 63 25 34 996.4 996.4 0.0
01/09:00am 16.3 9.4 14.0 86 1.3 N 43 54 23 29 997.5 997.5 12.6
01/08:52am 16.2 10.0 13.9 86 1.3 N 39 50 21 27 997.6 997.6 12.6
01/08:30am 15.6 11.2 14.0 90 0.9 NNE 30 33 16 18 997.7 997.7 12.6
01/08:00am 15.1 14.2 13.6 91 0.8 NE 11 19 6 10 997.4 997.4 12.4
01/07:47am 15.1 12.4 13.6 91 0.8 N 20 33 11 18 997.6 997.6 12.2
01/07:30am 14.9 9.9 13.4 91 0.8 NW 32 43 17 23 999.7 999.7 10.8
01/07:00am 15.1 10.4 13.3 89 1.0 WNW 30 35 16 19 1000.0 1000.0 9.0
01/06:30am 15.0 7.6 12.9 87 1.2 WNW 44 50 24 27 1000.0 1000.0 7.8
01/06:00am 16.8 8.5 13.9 83 1.7 WNW 50 63 27 34 999.5 999.5 4.6
01/05:55am 16.6 9.9 13.5 82 1.7 NNW 41 61 22 33 999.2 999.2 4.6
01/05:53am 17.0 12.0 13.9 82 1.8 N 33 61 18 33 999.4 999.4 4.6
01/05:52am 17.3 12.6 14.2 82 1.8 NNE 32 61 17 33 999.2 999.2 4.6
01/05:30am 18.5 14.4 15.9 85 1.5 NE 32 37 17 20 998.9 998.9 4.6
01/05:00am 18.4 13.8 16.0 86 1.4 NE 35 39 19 21 999.5 999.5 4.6
01/04:30am 18.5 13.9 16.1 86 1.4 NNE 35 41 19 22 1000.5 1000.5 4.6
01/04:00am 18.1 14.9 16.3 89 1.1 NE 28 32 15 17 1001.2 1001.2 4.6
01/03:30am 18.0 15.1 16.2 89 1.1 NE 26 30 14 16 1001.7 1001.7 4.6
01/03:00am 18.3 14.4 16.5 89 1.1 NNE 32 33 17 18 1002.3 1002.3 4.6
01/02:30am 18.0 14.0 16.3 90 1.0 NE 32 35 17 19 1002.9 1002.9 4.6
01/02:00am 18.0 14.0 16.3 90 1.0 NE 32 35 17 19 1003.5 1003.5 4.6
01/01:30am 18.1 14.1 16.3 89 1.1 NNE 32 39 17 21 1004.1 1004.1 4.6
01/01:00am 18.2 14.7 16.4 89 1.1 NNE 30 35 16 19 1005.0 1005.0 4.6
01/12:30am 18.4 14.5 16.4 88 1.2 N 32 35 17 19 1006.1 1006.1 4.6
01/12:00am 18.3 14.2 16.5 89 1.1 NNE 33 37 18 20 1006.7 1006.7 4.6
 
Date/Time
EST
Temp
°C
App
Temp
°C
Dew
Point
Rel
Hum
%
Delta-T
°C
Wind Press
QNH
hPa
Press
MSL
hPa
Rain
since 9 am
mm
Dir
 
Spd
km/h
Gust
km/h
Spd
kts
Gust
kts
30/11:30pm 18.3 13.5 16.5 89 1.1 NNE 37 41 20 22 1007.4 1007.4 4.6
30/11:00pm 18.3 12.7 16.6 90 1.0 NNE 41 46 22 25 1007.6 1007.6 4.6
30/10:30pm 18.3 13.9 16.6 90 1.0 NNE 35 43 19 23 1008.0 1008.0 4.6
30/10:00pm 18.2 13.4 16.5 90 1.0 NNE 37 44 20 24 1008.5 1008.5 4.6
30/09:30pm 18.2 13.8 16.7 91 0.9 NNE 35 41 19 22 1008.8 1008.8 4.6
30/09:00pm 18.2 14.8 16.7 91 0.9 NNE 30 33 16 18 1008.9 1008.9 4.6
30/08:30pm 18.0 15.6 16.5 91 0.9 NNE 24 28 13 15 1009.0 1009.0 4.6
30/08:00pm 17.9 15.5 16.4 91 0.9 NE 24 28 13 15 1009.4 1009.4 4.6
30/07:30pm 18.0 15.3 16.5 91 0.9 NE 26 30 14 16 1009.4 1009.4 4.6
30/07:00pm 18.0 15.9 16.3 90 1.0 NE 22 26 12 14 1009.6 1009.6 4.6
30/06:30pm 18.0 15.9 16.3 90 1.0 NNE 22 26 12 14 1009.8 1009.8 4.6
30/06:00pm 18.0 15.9 16.3 90 1.0 NNE 22 24 12 13 1009.9 1009.9 4.6
30/05:30pm 18.0 16.3 16.3 90 1.0 NNE 20 24 11 13 1009.9 1009.9 4.6
30/05:00pm 17.9 16.1 16.1 89 1.1 N 20 24 11 13 1010.2 1010.2 4.6
30/04:30pm 18.0 15.9 16.2 89 1.1 N 22 26 12 14 1010.3 1010.3 4.6
30/04:00pm 18.0 15.9 16.2 89 1.1 N 22 26 12 14 1010.4 1010.4 4.6
30/03:30pm 18.0 15.4 16.0 88 1.2 NNW 24 28 13 15 1010.5 1010.5 4.6
30/03:00pm 18.1 15.6 16.1 88 1.2 NNW 24 28 13 15 1010.6 1010.6 4.6
30/02:30pm 18.1 14.4 16.1 88 1.2 NNW 30 35 16 19 1010.7 1010.7 4.6
30/02:00pm 18.2 14.6 16.2 88 1.2 NNW 30 35 16 19 1010.8 1010.8 4.6
30/01:30pm 18.5 15.1 16.7 89 1.1 NNW 30 37 16 20 1010.9 1010.9 4.6
30/01:00pm 18.8 15.9 17.1 90 1.0 NNW 28 33 15 18 1011.1 1011.1 4.6
30/12:30pm 18.5 16.0 17.0 91 0.9 N 26 32 14 17 1011.3 1011.3 4.6
30/12:00pm 18.1 16.9 17.0 93 0.7 N 19 22 10 12 1011.8 1011.8 4.6
30/11:30am 17.2 14.7 16.1 93 0.7 N 24 30 13 16 1012.2 1012.2 4.6
30/11:00am 16.9 12.6 15.4 91 0.9 N 32 41 17 22 1012.8 1012.8 2.4
30/10:30am 17.6 15.4 15.9 90 1.0 N 22 26 12 14 1012.6 1012.6 0.0
30/10:00am 17.6 15.4 15.9 90 1.0 N 22 26 12 14 1012.7 1012.7 0.0
30/09:30am 17.8 16.0 16.1 90 1.0 N 20 24 11 13 1012.9 1012.9 0.0
30/09:00am 17.7 15.9 16.0 90 1.0 N 20 24 11 13 1013.2 1013.2 19.4
30/08:30am 17.3 15.5 15.6 90 1.0 N 19 22 10 12 1013.4 1013.4 19.4
30/08:00am 17.1 14.7 15.4 90 1.0 N 22 26 12 14 1013.3 1013.3 19.4
30/07:30am 17.1 16.0 15.4 90 1.0 N 15 17 8 9 1012.9 1012.9 19.4
30/07:00am 16.9 15.8 15.2 90 1.0 NNW 15 17 8 9 1012.7 1012.7 19.4
30/06:30am 16.7 15.1 15.1 90 0.9 N 17 19 9 10 1012.6 1012.6 19.4
30/06:00am 16.7 14.9 15.4 92 0.8 N 19 24 10 13 1012.6 1012.6 19.4
30/05:30am 15.5 14.7 14.0 91 0.8 E 11 11 6 6 1012.6 1012.6 19.4

Other Formats:

Comma delimited format used in spreadsheet applications
http://www.bom.gov.au/fwo/IDT60801/IDT60801.95964.axf

JavaScript Object Notation format (JSON) in row-major order
http://www.bom.gov.au/fwo/IDT60801/IDT60801.95964.json